Weather observations for the past three days for
Los Alamitos Army Airfield
| Date | Time (pdt) | Wind (kph) | Vis. (km) | Weather | Sky Cond. | Temperature (ºC) | Relative Humidity | Wind Chill (°C) | Heat Index (°C) | Pressure | Precipitation (cm) | ||||||
|---|---|---|---|---|---|---|---|---|---|---|---|---|---|---|---|---|---|
| Air | Dwpt | 6 hour | altimeter (cm) | sea level (mb) | 1 hr | 3 hr | 6 hr | ||||||||||
| Max. | Min. | ||||||||||||||||
| 10 | 06:55 | Calm | 11.27 | Overcast | OVC014 | 17.3 | 13.8 | 80% | 75.9 | 1012.1 | |||||||
| 10 | 04:55 | SW 7 | 14.48 | Overcast | OVC013 | 17.1 | 13.6 | 17.2 | 16.4 | 80% | 75.87 | 1011.8 | |||||
| 10 | 03:55 | Calm | 14.48 | Overcast | OVC013 | 17.2 | 13.7 | 80% | 75.87 | 1011.8 | |||||||
| 10 | 02:55 | W 6 | 12.87 | Overcast | OVC011 | 16.7 | 14 | 84% | 75.87 | 1011.8 | |||||||
| 10 | 01:55 | W 6 | 12.87 | Overcast | OVC009 | 16.5 | 14.1 | 86% | 75.87 | 1011.8 | |||||||
| 10 | 00:55 | SW 6 | 12.87 | Overcast | OVC009 | 16.8 | 14.3 | 85% | 75.9 | 1012.1 | |||||||
| 09 | 23:55 | Calm | 12.87 | Overcast | OVC008 | 16.5 | 14 | 85% | 75.9 | 1012.1 | |||||||
| 09 | 22:55 | S 9 | 12.87 | Overcast | OVC009 | 16.5 | 14.3 | 21.9 | 16.1 | 87% | 75.92 | 1012.5 | |||||
| 09 | 21:55 | S 9 | 12.87 | Overcast | OVC012 | 16.6 | 14.4 | 87% | 75.92 | 1012.5 | |||||||
| 09 | 20:55 | S 11 | 12.87 | Fair | CLR | 16.4 | 14 | 86% | 75.87 | 1011.8 | |||||||
| 09 | 18:55 | S 17 | 12.87 | Fair | CLR | 19.6 | 14.6 | 73% | 75.77 | 1010.4 | |||||||
| 09 | 17:55 | S 17 | 12.87 | Fair | CLR | 21.1 | 14.5 | 66% | 75.74 | 1010.1 | |||||||
| 09 | 16:55 | SW 20 | 12.87 | Fair | CLR | 21.7 | 14.8 | 23.4 | 20.2 | 65% | 75.77 | 1010.4 | |||||
| 09 | 15:55 | S 19 | 12.87 | Fair | CLR | 22.7 | 14.5 | 60% | 75.77 | 1010.4 | |||||||
| 09 | 14:55 | SW 15 | 11.27 | Fair | CLR | 23.1 | 14.6 | 59% | 75.82 | 1011.1 | |||||||
| 09 | 13:55 | SW 17 | 11.27 | A Few Clouds | FEW030 FEW180 | 23.3 | 14.8 | 59% | 75.87 | 1011.8 | |||||||
| 09 | 12:55 | S 11 | 9.66 | A Few Clouds with Haze | FEW030 FEW210 | 23 | 14.8 | 60% | 75.9 | 1012.1 | |||||||
| 09 | 11:55 | S 11 | 9.66 | Partly Cloudy with Haze | SCT019 | 22 | 14.9 | 64% | 75.95 | 1012.8 | |||||||
| 09 | 10:55 | SW 17 | 9.66 | Mostly Cloudy with Haze | BKN019 | 21.9 | 15 | 21.9 | 16.4 | 65% | 75.95 | 1012.8 | |||||
| 09 | 09:55 | Calm | 6.44 | Overcast with Haze | OVC015 | 18.8 | 14.1 | 74% | 75.95 | 1012.8 | |||||||
| 09 | 08:55 | SE 7 | 8.05 | Overcast with Haze | OVC014 | 18.2 | 14.3 | 78% | 75.95 | 1012.8 | |||||||
| 09 | 07:55 | NE 6 | 4.83 | Overcast with Haze | OVC012 | 17.7 | 14 | 79% | 75.95 | 1012.8 | |||||||
| 09 | 06:55 | S 6 | 9.66 | Overcast with Haze | OVC011 | 17.2 | 14.1 | 82% | 75.95 | 1012.8 | |||||||
| 09 | 05:55 | Calm | 6.44 | Overcast with Haze | OVC010 | 16.9 | 14 | 83% | 75.9 | 1012.1 | |||||||
| 09 | 04:55 | SW 6 | 11.27 | Overcast | OVC009 | 16.5 | 14.3 | 17 | 16.1 | 87% | 75.92 | 1012.5 | |||||
| 09 | 03:55 | SW 6 | 11.27 | Overcast | OVC008 | 16.2 | 14.2 | 88% | 75.92 | 1012.5 | |||||||
| 09 | 02:55 | SW 6 | 11.27 | Overcast | OVC008 | 16.4 | 14.2 | 87% | 75.92 | 1012.5 | |||||||
| 09 | 01:55 | Calm | 11.27 | Overcast | OVC007 | 16.5 | 14.1 | 86% | 75.95 | 1012.8 | |||||||
| 09 | 00:55 | S 7 | 11.27 | Overcast | OVC007 | 16.5 | 14.1 | 86% | 76 | 1013.5 | |||||||
| 08 | 23:55 | S 9 | 12.87 | Overcast | OVC010 | 16.6 | 14.1 | 85% | 76 | 1013.5 | |||||||
| 08 | 22:55 | S 7 | 11.27 | Overcast | OVC012 | 17.1 | 14.4 | 21.4 | 15.8 | 84% | 76.02 | 1013.8 | |||||
| 08 | 21:55 | W 6 | 12.87 | Overcast | OVC014 | 17.1 | 14 | 82% | 76.02 | 1013.8 | |||||||
| 08 | 20:55 | W 6 | 12.87 | Fair | CLR | 16.7 | 13.8 | 83% | 75.97 | 1013.1 | |||||||
| 08 | 19:55 | NW 11 | 11.27 | Fair | CLR | 18.4 | 14.1 | 76% | 75.92 | 1012.5 | |||||||
| 08 | 18:55 | S 11 | 11.27 | Fair | CLR | 20.1 | 14.4 | 70% | 75.9 | 1012.1 | |||||||
| 08 | 17:55 | SW 17 | 11.27 | Fair | CLR | 21 | 14.2 | 65% | 75.9 | 1012.1 | |||||||
| 08 | 16:55 | S 17 | 11.27 | Fair | CLR | 21.1 | 14.2 | 23.4 | 19.1 | 65% | 75.9 | 1012.1 | |||||
| 08 | 15:55 | S 15 | 16.09 | A Few Clouds | FEW020 | 22.6 | 14.4 | 60% | 75.95 | 1012.8 | |||||||
| 08 | 14:55 | SW 17 | 16.09 | A Few Clouds | FEW020 | 23.3 | 14.6 | 58% | 76 | 1013.5 | |||||||
| 08 | 13:55 | S 11 | 14.48 | A Few Clouds | FEW020 | 22.4 | 14.5 | 61% | 76.02 | 1013.8 | |||||||
| 08 | 12:55 | SW 15 | 9.66 | Mostly Cloudy with Haze | BKN018 | 21.8 | 14.4 | 63% | 76.07 | 1014.5 | |||||||
| 08 | 11:55 | SW 9 | 9.66 | Overcast with Haze | OVC016 | 20 | 14.6 | 71% | 76.12 | 1015.2 | |||||||
| 08 | 10:55 | S 6 | 9.66 | Overcast with Haze | OVC015 | 19.1 | 14.1 | 19.3 | 16.8 | 73% | 76.15 | 1015.5 | |||||
| 08 | 09:55 | E 7 | 9.66 | Overcast with Haze | OVC013 | 18.2 | 13.9 | 76% | 76.15 | 1015.5 | |||||||
| 08 | 08:55 | SE 6 | 9.66 | Overcast with Haze | OVC011 | 17.6 | 14.1 | 80% | 76.15 | 1015.5 | |||||||
| 08 | 07:55 | NE 6 | 9.66 | Overcast with Haze | OVC011 | 17.3 | 14 | 81% | 76.15 | 1015.5 | |||||||
| 08 | 06:55 | SE 6 | 9.66 | Overcast with Haze | OVC010 | 17.1 | 14.2 | 83% | 76.12 | 1015.2 | |||||||
| 08 | 05:55 | Calm | 12.87 | Overcast | OVC010 | 17 | 14.1 | 83% | 76.1 | 1014.8 | |||||||
| 08 | 01:55 | Calm | 14.48 | Overcast | OVC011 | 16.9 | 14 | 83% | 76.1 | 1014.8 | |||||||
| 07 | 18:55 | S 15 | 16.09 | A Few Clouds | FEW010 | 18.8 | 14.5 | 76% | 75.95 | 1012.8 | |||||||
| 07 | 15:55 | SW 19 | 16.09 | A Few Clouds | FEW010 | 22.7 | 13.7 | 57% | 75.95 | 1012.8 | |||||||
| 07 | 14:55 | SW 19 | 16.09 | A Few Clouds | FEW025 | 22.4 | 13.7 | 58% | 76 | 1013.5 | |||||||
| 07 | 13:55 | S 20 | 16.09 | Fair | CLR | 22.9 | 13.9 | 57% | 76.05 | 1014.2 | |||||||
| 07 | 12:55 | SW 15 G 28 | 16.09 | Fair | CLR | 22.6 | 13.6 | 57% | 76.07 | 1014.5 | |||||||
| 07 | 11:55 | S 13 | 16.09 | A Few Clouds | FEW020 | 22 | 13.9 | 60% | 76.12 | 1015.2 | |||||||
| 07 | 10:55 | SW 9 | 16.09 | A Few Clouds | FEW020 | 21.3 | 13.7 | 21.5 | 12.6 | 62% | 76.15 | 1015.5 | |||||
| 07 | 09:55 | Calm | 16.09 | A Few Clouds | FEW020 | 20.8 | 13.5 | 63% | 76.15 | 1015.5 | |||||||
| 07 | 08:55 | Calm | 16.09 | A Few Clouds | FEW015 | 18.3 | 13.2 | 72% | 76.17 | 1015.9 | |||||||
| 07 | 07:55 | Calm | 16.09 | A Few Clouds | FEW015 | 17.6 | 13.3 | 76% | 76.17 | 1015.9 | |||||||
| Date | Time (pdt) | Wind (kph) | Vis. (km) | Weather | Sky Cond. | Air | Dwpt | Max. | Min. | Relative Humidity | Wind Chill (°C) | Heat Index (°C) | altimeter (cm) | sea level (mb) | 1 hr | 3 hr | 6 hr |
| 6 hour | |||||||||||||||||
| Temperature (ºC) | Pressure | Precipitation (cm) | |||||||||||||||